Terminal Aerodrome Forecast
Issued by NWS

Home | Current Version | Previous Version | Text Only | Print | Product List | Glossary On
Versions: 1 2 3 4 5 6 7 8 9 10 11 12 13 14 15 16 17
000
FTUS46 KSGX 021141
TAFTRM
TAF
KTRM 021141Z 0212/0312 VRB05KT P6SM VCSH SCT040 BKN070
     FM021800 16011KT P6SM SCT050 BKN080
     FM022100 21012KT P6SM SCT050 BKN090
     FM030000 31012KT P6SM SCT060 SCT090
     FM030400 33005KT P6SM SCT090=

USA.gov is the U.S. government's official web portal to all federal, state and local government web resources and services.